sensor_id;sensor_type;location;lat;lon;timestamp;pressure;altitude;pressure_sealevel;temperature;humidity
45941;BME280;31858;46.008;8.978;2023-04-22T00:07:05;94415.97;;;8.32;100.00
45941;BME280;31858;46.008;8.978;2023-04-22T00:17:08;94409.88;;;8.32;100.00
45941;BME280;31858;46.008;8.978;2023-04-22T00:27:10;94407.00;;;8.40;100.00
45941;BME280;31858;46.008;8.978;2023-04-22T00:37:13;94394.13;;;8.42;100.00
45941;BME280;31858;46.008;8.978;2023-04-22T00:47:15;94394.19;;;8.19;100.00
45941;BME280;31858;46.008;8.978;2023-04-22T00:57:19;94381.94;;;8.38;100.00
45941;BME280;31858;46.008;8.978;2023-04-22T01:07:20;94383.66;;;8.00;100.00
45941;BME280;31858;46.008;8.978;2023-04-22T01:17:23;94380.16;;;7.93;100.00
45941;BME280;31858;46.008;8.978;2023-04-22T01:27:26;94369.75;;;8.07;100.00
45941;BME280;31858;46.008;8.978;2023-04-22T01:37:28;94363.16;;;7.97;100.00
45941;BME280;31858;46.008;8.978;2023-04-22T01:47:32;94364.84;;;7.82;100.00
45941;BME280;31858;46.008;8.978;2023-04-22T01:57:34;94358.31;;;8.03;100.00
45941;BME280;31858;46.008;8.978;2023-04-22T02:07:37;94369.38;;;7.78;100.00
45941;BME280;31858;46.008;8.978;2023-04-22T02:17:40;94370.31;;;7.93;100.00
45941;BME280;31858;46.008;8.978;2023-04-22T02:27:44;94368.81;;;7.96;100.00
45941;BME280;31858;46.008;8.978;2023-04-22T02:37:45;94363.41;;;7.89;100.00
45941;BME280;31858;46.008;8.978;2023-04-22T02:47:48;94377.56;;;7.70;100.00
45941;BME280;31858;46.008;8.978;2023-04-22T02:57:50;94379.13;;;7.48;100.00
45941;BME280;31858;46.008;8.978;2023-04-22T03:07:53;94372.09;;;7.59;100.00
45941;BME280;31858;46.008;8.978;2023-04-22T03:17:54;94370.50;;;7.55;100.00
45941;BME280;31858;46.008;8.978;2023-04-22T03:27:57;94375.34;;;7.49;100.00
45941;BME280;31858;46.008;8.978;2023-04-22T03:37:59;94366.28;;;7.50;100.00
45941;BME280;31858;46.008;8.978;2023-04-22T03:48:02;94371.69;;;7.57;100.00
45941;BME280;31858;46.008;8.978;2023-04-22T03:58:03;94372.16;;;7.63;100.00
45941;BME280;31858;46.008;8.978;2023-04-22T04:08:06;94384.00;;;7.46;100.00
45941;BME280;31858;46.008;8.978;2023-04-22T04:18:08;94372.00;;;7.52;100.00
45941;BME280;31858;46.008;8.978;2023-04-22T04:28:12;94351.00;;;7.66;100.00
45941;BME280;31858;46.008;8.978;2023-04-22T04:38:14;94344.25;;;7.46;100.00
45941;BME280;31858;46.008;8.978;2023-04-22T04:48:17;94363.78;;;7.61;100.00
45941;BME280;31858;46.008;8.978;2023-04-22T04:58:19;94367.91;;;7.58;100.00
45941;BME280;31858;46.008;8.978;2023-04-22T05:08:22;94380.66;;;7.49;100.00
45941;BME280;31858;46.008;8.978;2023-04-22T05:18:23;94391.50;;;7.40;100.00
45941;BME280;31858;46.008;8.978;2023-04-22T05:28:26;94391.84;;;7.62;100.00
45941;BME280;31858;46.008;8.978;2023-04-22T05:38:28;94403.97;;;7.89;100.00
45941;BME280;31858;46.008;8.978;2023-04-22T05:48:31;94405.31;;;7.76;100.00
45941;BME280;31858;46.008;8.978;2023-04-22T05:58:32;94405.97;;;7.69;100.00
45941;BME280;31858;46.008;8.978;2023-04-22T06:08:35;94410.97;;;7.74;100.00
45941;BME280;31858;46.008;8.978;2023-04-22T06:18:37;94412.59;;;7.82;100.00
45941;BME280;31858;46.008;8.978;2023-04-22T06:28:40;94405.16;;;7.92;100.00
45941;BME280;31858;46.008;8.978;2023-04-22T06:38:41;94414.03;;;8.03;100.00
45941;BME280;31858;46.008;8.978;2023-04-22T06:48:44;94409.25;;;8.12;100.00
45941;BME280;31858;46.008;8.978;2023-04-22T06:58:46;94419.41;;;8.33;100.00
45941;BME280;31858;46.008;8.978;2023-04-22T07:08:49;94434.66;;;8.39;100.00
45941;BME280;31858;46.008;8.978;2023-04-22T07:18:51;94429.50;;;8.50;100.00
45941;BME280;31858;46.008;8.978;2023-04-22T07:28:54;94431.88;;;8.59;100.00
45941;BME280;31858;46.008;8.978;2023-04-22T07:38:55;94425.91;;;8.65;100.00
45941;BME280;31858;46.008;8.978;2023-04-22T07:48:58;94422.28;;;8.80;100.00
45941;BME280;31858;46.008;8.978;2023-04-22T07:59:00;94415.22;;;8.92;100.00
45941;BME280;31858;46.008;8.978;2023-04-22T08:09:03;94419.91;;;9.05;100.00
45941;BME280;31858;46.008;8.978;2023-04-22T08:19:04;94394.63;;;9.22;100.00
45941;BME280;31858;46.008;8.978;2023-04-22T08:29:07;94408.50;;;9.45;100.00
45941;BME280;31858;46.008;8.978;2023-04-22T08:39:09;94398.41;;;9.65;100.00
45941;BME280;31858;46.008;8.978;2023-04-22T08:49:13;94402.41;;;9.89;100.00
45941;BME280;31858;46.008;8.978;2023-04-22T08:59:15;94391.41;;;9.91;100.00
45941;BME280;31858;46.008;8.978;2023-04-22T09:09:19;94389.91;;;9.97;100.00
45941;BME280;31858;46.008;8.978;2023-04-22T09:19:23;94372.47;;;10.03;100.00
45941;BME280;31858;46.008;8.978;2023-04-22T09:29:29;94378.69;;;10.21;100.00
45941;BME280;31858;46.008;8.978;2023-04-22T09:39:31;94369.28;;;10.45;100.00
45941;BME280;31858;46.008;8.978;2023-04-22T09:49:36;94350.38;;;10.78;100.00
45941;BME280;31858;46.008;8.978;2023-04-22T09:59:38;94353.13;;;11.18;100.00
45941;BME280;31858;46.008;8.978;2023-04-22T10:09:41;94347.44;;;11.33;100.00
45941;BME280;31858;46.008;8.978;2023-04-22T10:19:45;94352.78;;;11.37;100.00
45941;BME280;31858;46.008;8.978;2023-04-22T10:29:49;94347.03;;;11.70;100.00
45941;BME280;31858;46.008;8.978;2023-04-22T10:40:05;94340.19;;;11.84;100.00
45941;BME280;31858;46.008;8.978;2023-04-22T10:50:19;94326.06;;;11.94;100.00
45941;BME280;31858;46.008;8.978;2023-04-22T11:00:26;94322.59;;;12.18;100.00
45941;BME280;31858;46.008;8.978;2023-04-22T11:10:38;94308.28;;;12.71;100.00
45941;BME280;31858;46.008;8.978;2023-04-22T11:20:42;94317.34;;;12.91;100.00
45941;BME280;31858;46.008;8.978;2023-04-22T11:30:45;94315.72;;;13.01;100.00
45941;BME280;31858;46.008;8.978;2023-04-22T11:40:47;94311.44;;;13.14;100.00
45941;BME280;31858;46.008;8.978;2023-04-22T11:51:06;94307.63;;;13.12;100.00
45941;BME280;31858;46.008;8.978;2023-04-22T12:01:11;94296.22;;;13.04;100.00
45941;BME280;31858;46.008;8.978;2023-04-22T12:11:15;94299.97;;;13.17;100.00
45941;BME280;31858;46.008;8.978;2023-04-22T12:21:18;94297.22;;;13.28;100.00
45941;BME280;31858;46.008;8.978;2023-04-22T12:31:21;94295.25;;;13.39;100.00
45941;BME280;31858;46.008;8.978;2023-04-22T12:41:23;94286.78;;;13.44;100.00
45941;BME280;31858;46.008;8.978;2023-04-22T12:51:26;94280.22;;;13.52;100.00
45941;BME280;31858;46.008;8.978;2023-04-22T13:01:28;94261.31;;;14.08;100.00
45941;BME280;31858;46.008;8.978;2023-04-22T13:11:31;94253.47;;;14.58;100.00
45941;BME280;31858;46.008;8.978;2023-04-22T13:21:32;94254.38;;;15.01;100.00
45941;BME280;31858;46.008;8.978;2023-04-22T13:31:36;94246.19;;;14.85;100.00
45941;BME280;31858;46.008;8.978;2023-04-22T13:41:37;94246.66;;;14.80;100.00
45941;BME280;31858;46.008;8.978;2023-04-22T13:51:40;94239.66;;;15.13;100.00
45941;BME280;31858;46.008;8.978;2023-04-22T14:01:42;94239.41;;;15.04;100.00
45941;BME280;31858;46.008;8.978;2023-04-22T14:11:45;94237.63;;;14.67;100.00
45941;BME280;31858;46.008;8.978;2023-04-22T14:21:46;94234.88;;;14.44;100.00
45941;BME280;31858;46.008;8.978;2023-04-22T14:31:49;94219.25;;;14.35;100.00
45941;BME280;31858;46.008;8.978;2023-04-22T14:41:51;94212.78;;;14.32;100.00
45941;BME280;31858;46.008;8.978;2023-04-22T14:51:54;94204.69;;;14.36;100.00
45941;BME280;31858;46.008;8.978;2023-04-22T15:01:56;94204.38;;;14.61;100.00
45941;BME280;31858;46.008;8.978;2023-04-22T15:11:59;94202.47;;;14.88;100.00
45941;BME280;31858;46.008;8.978;2023-04-22T15:22:04;94197.91;;;14.85;100.00
45941;BME280;31858;46.008;8.978;2023-04-22T15:32:07;94195.94;;;14.62;100.00
45941;BME280;31858;46.008;8.978;2023-04-22T15:42:08;94195.38;;;14.48;100.00
45941;BME280;31858;46.008;8.978;2023-04-22T15:52:11;94201.25;;;14.35;100.00
45941;BME280;31858;46.008;8.978;2023-04-22T16:02:13;94207.53;;;14.25;100.00
45941;BME280;31858;46.008;8.978;2023-04-22T16:12:16;94200.59;;;14.28;100.00
45941;BME280;31858;46.008;8.978;2023-04-22T16:22:19;94207.94;;;14.24;100.00
45941;BME280;31858;46.008;8.978;2023-04-22T16:32:22;94209.13;;;14.19;100.00
45941;BME280;31858;46.008;8.978;2023-04-22T16:42:24;94199.38;;;14.32;100.00
45941;BME280;31858;46.008;8.978;2023-04-22T16:52:27;94190.94;;;14.34;100.00
45941;BME280;31858;46.008;8.978;2023-04-22T17:02:28;94188.06;;;14.21;100.00
45941;BME280;31858;46.008;8.978;2023-04-22T17:12:31;94189.66;;;14.15;100.00
45941;BME280;31858;46.008;8.978;2023-04-22T17:22:33;94194.75;;;14.06;100.00
45941;BME280;31858;46.008;8.978;2023-04-22T17:32:36;94199.50;;;14.25;100.00
45941;BME280;31858;46.008;8.978;2023-04-22T17:42:38;94188.56;;;14.40;100.00
45941;BME280;31858;46.008;8.978;2023-04-22T17:52:42;94196.59;;;14.13;100.00
45941;BME280;31858;46.008;8.978;2023-04-22T18:02:43;94203.34;;;13.90;100.00
45941;BME280;31858;46.008;8.978;2023-04-22T18:12:46;94212.69;;;13.75;100.00
45941;BME280;31858;46.008;8.978;2023-04-22T18:22:49;94209.41;;;13.60;100.00
45941;BME280;31858;46.008;8.978;2023-04-22T18:32:53;94232.59;;;13.33;100.00
45941;BME280;31858;46.008;8.978;2023-04-22T18:42:54;94226.50;;;13.29;100.00
45941;BME280;31858;46.008;8.978;2023-04-22T18:52:57;94225.75;;;13.28;100.00
45941;BME280;31858;46.008;8.978;2023-04-22T19:02:59;94238.06;;;13.19;100.00
45941;BME280;31858;46.008;8.978;2023-04-22T19:13:02;94238.28;;;13.38;100.00
45941;BME280;31858;46.008;8.978;2023-04-22T19:23:04;94245.75;;;13.06;100.00
45941;BME280;31858;46.008;8.978;2023-04-22T19:33:07;94241.53;;;13.12;100.00
45941;BME280;31858;46.008;8.978;2023-04-22T19:43:09;94243.63;;;12.87;100.00
45941;BME280;31858;46.008;8.978;2023-04-22T19:53:13;94252.53;;;12.69;100.00
45941;BME280;31858;46.008;8.978;2023-04-22T20:03:15;94252.97;;;12.57;100.00
45941;BME280;31858;46.008;8.978;2023-04-22T20:13:19;94255.31;;;12.45;100.00
45941;BME280;31858;46.008;8.978;2023-04-22T20:23:21;94260.66;;;12.45;100.00
45941;BME280;31858;46.008;8.978;2023-04-22T20:33:25;94248.53;;;12.29;100.00
45941;BME280;31858;46.008;8.978;2023-04-22T20:43:26;94246.25;;;12.28;100.00
45941;BME280;31858;46.008;8.978;2023-04-22T20:53:29;94248.19;;;12.20;100.00
45941;BME280;31858;46.008;8.978;2023-04-22T21:03:32;94244.00;;;12.19;100.00
45941;BME280;31858;46.008;8.978;2023-04-22T21:13:36;94256.19;;;12.20;100.00
45941;BME280;31858;46.008;8.978;2023-04-22T21:23:39;94251.25;;;12.12;100.00
45941;BME280;31858;46.008;8.978;2023-04-22T21:33:42;94244.03;;;12.01;100.00
45941;BME280;31858;46.008;8.978;2023-04-22T21:43:44;94241.00;;;12.03;100.00
45941;BME280;31858;46.008;8.978;2023-04-22T21:53:47;94254.00;;;11.90;100.00
45941;BME280;31858;46.008;8.978;2023-04-22T22:03:49;94248.22;;;12.09;100.00
45941;BME280;31858;46.008;8.978;2023-04-22T22:13:52;94241.00;;;12.03;100.00
45941;BME280;31858;46.008;8.978;2023-04-22T22:23:53;94247.13;;;11.89;100.00
45941;BME280;31858;46.008;8.978;2023-04-22T22:33:58;94254.38;;;11.89;100.00
45941;BME280;31858;46.008;8.978;2023-04-22T22:43:59;94250.22;;;11.81;100.00
45941;BME280;31858;46.008;8.978;2023-04-22T22:54:03;94243.34;;;11.72;100.00
45941;BME280;31858;46.008;8.978;2023-04-22T23:04:04;94239.13;;;11.75;100.00
45941;BME280;31858;46.008;8.978;2023-04-22T23:14:07;94247.19;;;11.64;100.00
45941;BME280;31858;46.008;8.978;2023-04-22T23:24:11;94235.00;;;11.67;100.00
45941;BME280;31858;46.008;8.978;2023-04-22T23:34:15;94230.81;;;11.62;100.00
45941;BME280;31858;46.008;8.978;2023-04-22T23:44:19;94211.03;;;11.35;100.00
45941;BME280;31858;46.008;8.978;2023-04-22T23:54:22;94221.31;;;11.22;100.00
